createdAt,value
2022-08-02T00:00:03.605Z,18.62
2022-08-02T00:01:03.681Z,18.56
2022-08-02T00:02:03.773Z,18.56
2022-08-02T00:03:03.842Z,18.56
2022-08-02T00:04:03.834Z,18.56
2022-08-02T00:05:03.801Z,18.50
2022-08-02T00:06:03.833Z,18.50
2022-08-02T00:07:03.826Z,18.50
2022-08-02T00:08:03.918Z,18.50
2022-08-02T00:09:03.925Z,18.50
2022-08-02T00:10:04.569Z,18.50
2022-08-02T00:11:03.834Z,18.50
2022-08-02T00:12:03.764Z,18.50
2022-08-02T00:13:03.914Z,18.50
2022-08-02T00:14:03.825Z,18.50
2022-08-02T00:15:03.919Z,18.44
2022-08-02T00:16:03.923Z,18.44
2022-08-02T00:17:03.916Z,18.44
2022-08-02T00:18:04.092Z,18.44
2022-08-02T00:19:03.990Z,18.44
2022-08-02T00:20:03.997Z,18.38
2022-08-02T00:21:04.081Z,18.38
2022-08-02T00:22:04.067Z,18.38
2022-08-02T00:23:04.096Z,18.31
2022-08-02T00:24:28.336Z,18.31
2022-08-02T00:25:04.345Z,18.31
2022-08-02T00:26:04.230Z,18.31
2022-08-02T00:27:04.994Z,18.19
2022-08-02T00:28:04.315Z,18.19
2022-08-02T00:29:04.243Z,18.19
2022-08-02T00:30:04.180Z,18.19
2022-08-02T00:31:04.318Z,18.19
2022-08-02T00:32:04.255Z,18.19
2022-08-02T00:33:03.920Z,18.19
2022-08-02T00:34:05.450Z,18.19
2022-08-02T00:35:04.023Z,18.12
2022-08-02T00:36:04.151Z,18.12
2022-08-02T00:37:03.517Z,18.12
2022-08-02T00:38:03.609Z,18.12
2022-08-02T00:39:03.608Z,18.06
2022-08-02T00:40:03.604Z,18.06
2022-08-02T00:41:03.593Z,18.06
2022-08-02T00:42:03.446Z,18.06
2022-08-02T00:43:04.399Z,18.00
2022-08-02T00:44:03.596Z,18.00
2022-08-02T00:45:03.595Z,18.00
2022-08-02T00:46:03.983Z,17.94
2022-08-02T00:47:03.681Z,17.94
2022-08-02T00:48:03.938Z,17.88
2022-08-02T00:49:04.047Z,17.88
2022-08-02T00:50:04.075Z,17.88
2022-08-02T00:51:04.160Z,17.88
2022-08-02T00:52:04.079Z,17.88
2022-08-02T00:53:04.076Z,17.81
2022-08-02T00:54:04.228Z,17.81
2022-08-02T00:55:04.403Z,17.81
2022-08-02T00:56:04.320Z,17.81
2022-08-02T00:57:04.502Z,17.81
2022-08-02T00:58:04.396Z,17.75
2022-08-02T00:59:04.403Z,17.75
2022-08-02T01:00:04.479Z,17.69
2022-08-02T01:01:04.573Z,17.69
2022-08-02T01:02:03.602Z,17.69
2022-08-02T01:03:03.686Z,17.69
2022-08-02T01:04:03.597Z,17.62
2022-08-02T01:05:03.777Z,17.62
2022-08-02T01:06:11.491Z,17.62
2022-08-02T01:07:03.721Z,17.62
2022-08-02T01:08:03.684Z,17.62
2022-08-02T01:09:03.609Z,17.56
2022-08-02T01:10:03.687Z,17.56
2022-08-02T01:11:03.845Z,17.50
2022-08-02T01:12:03.841Z,17.50
2022-08-02T01:13:04.004Z,17.44
2022-08-02T01:14:03.910Z,17.44
2022-08-02T01:15:04.187Z,17.44
2022-08-02T01:16:03.996Z,17.38
2022-08-02T01:17:04.172Z,17.38
2022-08-02T01:18:04.174Z,17.38
2022-08-02T01:19:04.268Z,17.31
2022-08-02T01:20:04.326Z,17.31
2022-08-02T01:21:04.396Z,17.31
2022-08-02T01:22:04.484Z,17.31
2022-08-02T01:23:04.434Z,17.31
2022-08-02T01:24:03.519Z,17.25
2022-08-02T01:25:03.522Z,17.25
2022-08-02T01:26:03.526Z,17.25
2022-08-02T01:27:04.483Z,17.25
2022-08-02T01:28:04.473Z,17.25
2022-08-02T01:29:04.401Z,17.25
2022-08-02T01:30:03.518Z,17.19
2022-08-02T01:31:03.600Z,17.19
2022-08-02T01:32:03.932Z,17.19
2022-08-02T01:33:03.835Z,17.12
2022-08-02T01:34:03.918Z,17.12
2022-08-02T01:35:03.927Z,17.12
2022-08-02T01:36:04.000Z,17.12
2022-08-02T01:37:03.839Z,17.12
2022-08-02T01:38:03.845Z,17.06
2022-08-02T01:39:04.825Z,17.06
2022-08-02T01:40:04.243Z,17.06
2022-08-02T01:41:04.159Z,17.06
2022-08-02T01:42:04.315Z,17.06
2022-08-02T01:43:04.725Z,17.06
2022-08-02T01:44:04.401Z,17.00
2022-08-02T01:45:03.597Z,17.00
2022-08-02T01:46:04.198Z,17.00
2022-08-02T01:47:04.235Z,16.94
2022-08-02T01:48:04.234Z,16.94
2022-08-02T01:49:04.450Z,16.94
2022-08-02T01:50:04.316Z,16.94
2022-08-02T01:51:04.406Z,16.88
2022-08-02T01:52:04.563Z,16.88
2022-08-02T01:53:04.475Z,16.88
2022-08-02T01:54:03.689Z,16.88
2022-08-02T01:55:03.608Z,16.88
2022-08-02T01:56:03.677Z,16.81
2022-08-02T01:57:03.677Z,16.81
2022-08-02T01:58:03.684Z,16.81
2022-08-02T01:59:03.695Z,16.75
2022-08-02T02:00:03.880Z,16.75
2022-08-02T02:01:03.894Z,16.69
2022-08-02T02:02:03.843Z,16.69
2022-08-02T02:03:04.021Z,16.69
2022-08-02T02:04:04.086Z,16.69
2022-08-02T02:05:04.070Z,16.69
2022-08-02T02:06:04.251Z,16.69
2022-08-02T02:07:04.160Z,16.62
2022-08-02T02:08:04.087Z,16.62
2022-08-02T02:09:04.159Z,16.62
2022-08-02T02:10:04.086Z,16.62
2022-08-02T02:12:03.243Z,16.62
2022-08-02T02:12:04.025Z,16.62
2022-08-02T02:13:04.248Z,16.56
2022-08-02T02:14:04.174Z,16.56
2022-08-02T02:15:04.319Z,16.56
2022-08-02T02:16:03.612Z,16.56
2022-08-02T02:17:03.619Z,16.50
2022-08-02T02:18:12.223Z,16.50
2022-08-02T02:19:03.685Z,16.50
2022-08-02T02:20:03.689Z,16.50
2022-08-02T02:21:03.614Z,16.44
2022-08-02T02:22:03.703Z,16.44
2022-08-02T02:23:03.771Z,16.44
2022-08-02T02:24:03.937Z,16.38
2022-08-02T02:25:04.268Z,16.38
2022-08-02T02:26:03.971Z,16.38
2022-08-02T02:27:03.906Z,16.38
2022-08-02T02:28:03.907Z,16.38
2022-08-02T02:29:03.921Z,16.38
2022-08-02T02:30:04.278Z,16.38
2022-08-02T02:31:04.242Z,16.31
2022-08-02T02:32:04.336Z,16.31
2022-08-02T02:33:04.314Z,16.31
2022-08-02T02:34:04.071Z,16.31
2022-08-02T02:35:04.117Z,16.31
2022-08-02T02:36:04.149Z,16.31
2022-08-02T02:37:04.063Z,16.25
2022-08-02T02:38:04.242Z,16.25
2022-08-02T02:39:04.071Z,16.19
2022-08-02T02:40:04.239Z,16.19
2022-08-02T02:41:04.412Z,16.19
2022-08-02T02:42:03.694Z,16.19
2022-08-02T02:43:03.604Z,16.12
2022-08-02T02:44:03.606Z,16.12
2022-08-02T02:45:03.779Z,16.12
2022-08-02T02:46:03.758Z,16.12
2022-08-02T02:47:03.692Z,16.12
2022-08-02T02:48:03.674Z,16.12
2022-08-02T02:49:03.750Z,16.06
2022-08-02T02:50:03.847Z,16.06
2022-08-02T02:51:03.861Z,16.06
2022-08-02T02:52:03.855Z,16.06
2022-08-02T02:53:03.766Z,16.06
2022-08-02T02:54:26.781Z,16.00
2022-08-02T02:55:03.676Z,16.00
2022-08-02T02:56:03.758Z,16.00
2022-08-02T02:57:03.527Z,16.00
2022-08-02T02:58:04.482Z,16.00
2022-08-02T02:59:03.439Z,16.00
2022-08-02T03:00:04.317Z,16.00
2022-08-02T03:01:04.294Z,16.00
2022-08-02T03:02:04.397Z,16.00
2022-08-02T03:03:04.394Z,15.94
2022-08-02T03:04:03.542Z,15.94
2022-08-02T03:05:03.609Z,15.94
2022-08-02T03:06:03.612Z,15.94
2022-08-02T03:07:04.261Z,15.94
2022-08-02T03:08:04.223Z,15.94
2022-08-02T03:09:04.354Z,15.94
2022-08-02T03:10:03.527Z,15.94
2022-08-02T03:11:04.470Z,15.88
2022-08-02T03:12:04.245Z,15.88
2022-08-02T03:13:04.331Z,15.88
2022-08-02T03:14:04.393Z,15.88
2022-08-02T03:15:04.416Z,15.88
2022-08-02T03:16:04.409Z,15.81
2022-08-02T03:17:03.515Z,15.81
2022-08-02T03:18:03.749Z,15.81
2022-08-02T03:19:03.615Z,15.81
2022-08-02T03:20:03.603Z,15.75
2022-08-02T03:21:03.907Z,15.75
2022-08-02T03:22:04.184Z,15.75
2022-08-02T03:23:04.075Z,15.69
2022-08-02T03:24:04.169Z,15.69
2022-08-02T03:25:04.259Z,15.69
2022-08-02T03:26:04.237Z,15.69
2022-08-02T03:27:04.094Z,15.69
2022-08-02T03:28:04.237Z,15.69
2022-08-02T03:29:10.364Z,15.69
2022-08-02T03:30:04.311Z,15.62
2022-08-02T03:31:04.421Z,15.62
2022-08-02T03:32:04.391Z,15.62
2022-08-02T03:33:04.500Z,15.62
2022-08-02T03:34:04.569Z,15.62
2022-08-02T03:35:03.446Z,15.62
2022-08-02T03:36:03.521Z,15.62
2022-08-02T03:37:03.507Z,15.56
2022-08-02T03:38:03.510Z,15.56
2022-08-02T03:39:03.617Z,15.56
2022-08-02T03:40:03.849Z,15.56
2022-08-02T03:41:03.844Z,15.56
2022-08-02T03:42:03.913Z,15.56
2022-08-02T03:43:03.923Z,15.50
2022-08-02T03:44:03.531Z,15.50
2022-08-02T03:45:07.915Z,15.50
2022-08-02T03:46:03.581Z,15.50
2022-08-02T03:47:03.540Z,15.50
2022-08-02T03:48:05.393Z,15.50
2022-08-02T03:49:03.802Z,15.50
2022-08-02T03:50:03.762Z,15.50
2022-08-02T03:51:04.158Z,15.44
2022-08-02T03:52:04.162Z,15.44
2022-08-02T03:53:04.229Z,15.44
2022-08-02T03:54:04.335Z,15.44
2022-08-02T03:55:04.494Z,15.44
2022-08-02T03:56:03.609Z,15.44
2022-08-02T03:57:04.214Z,15.50
2022-08-02T03:58:04.242Z,15.44
2022-08-02T03:59:04.411Z,15.44
2022-08-02T04:00:04.316Z,15.44
2022-08-02T04:01:05.403Z,15.44
2022-08-02T04:02:04.400Z,15.44
2022-08-02T04:03:03.447Z,15.44
2022-08-02T04:04:03.521Z,15.44
2022-08-02T04:05:03.677Z,15.44
2022-08-02T04:06:04.856Z,15.44
2022-08-02T04:07:03.761Z,15.44
2022-08-02T04:08:36.529Z,15.44
2022-08-02T04:09:03.753Z,15.44
2022-08-02T04:10:03.850Z,15.44
2022-08-02T04:11:03.905Z,15.44
2022-08-02T04:12:03.855Z,15.44
2022-08-02T04:13:03.766Z,15.44
2022-08-02T04:14:03.868Z,15.44
2022-08-02T04:15:03.833Z,15.44
2022-08-02T04:16:03.937Z,15.44
2022-08-02T04:17:03.935Z,15.44
2022-08-02T04:18:03.823Z,15.44
2022-08-02T04:19:03.921Z,15.44
2022-08-02T04:20:03.928Z,15.44
2022-08-02T04:21:03.907Z,15.50
2022-08-02T04:22:03.930Z,15.50
2022-08-02T04:23:04.006Z,15.50
2022-08-02T04:24:04.023Z,15.50
2022-08-02T04:25:04.252Z,15.56
2022-08-02T04:26:04.111Z,15.56
2022-08-02T04:27:06.941Z,15.62
2022-08-02T04:28:15.723Z,15.62
2022-08-02T04:29:03.694Z,15.69
2022-08-02T04:30:03.759Z,15.69
2022-08-02T04:31:03.842Z,15.69
2022-08-02T04:32:03.999Z,15.69
2022-08-02T04:33:03.990Z,15.75
2022-08-02T04:34:04.160Z,15.81
2022-08-02T04:35:18.528Z,15.94
2022-08-02T04:36:04.262Z,16.06
2022-08-02T04:37:04.270Z,16.19
2022-08-02T04:38:05.847Z,16.38
2022-08-02T04:39:04.241Z,16.50
2022-08-02T04:40:04.417Z,16.69
2022-08-02T04:41:04.431Z,16.88
2022-08-02T04:42:04.476Z,17.06
2022-08-02T04:43:04.407Z,17.19
2022-08-02T04:44:03.516Z,17.38
2022-08-02T04:45:03.597Z,17.56
2022-08-02T04:46:03.508Z,17.75
2022-08-02T04:47:06.586Z,18.00
2022-08-02T04:48:05.765Z,18.19
2022-08-02T04:49:03.778Z,18.38
2022-08-02T04:50:03.691Z,18.62
2022-08-02T04:51:03.754Z,18.81
2022-08-02T04:52:03.846Z,19.00
2022-08-02T04:53:03.747Z,19.19
2022-08-02T04:54:06.255Z,19.38
2022-08-02T04:55:03.838Z,19.62
2022-08-02T04:56:03.856Z,19.75
2022-08-02T04:57:03.830Z,20.00
2022-08-02T04:58:06.817Z,20.19
2022-08-02T04:59:03.819Z,20.38
2022-08-02T05:00:03.918Z,20.62
2022-08-02T05:01:04.042Z,20.81
2022-08-02T05:02:03.992Z,21.06
2022-08-02T05:03:03.933Z,21.25
2022-08-02T05:04:03.928Z,21.50
2022-08-02T05:05:08.300Z,21.75
2022-08-02T05:06:03.851Z,21.94
2022-08-02T05:07:04.086Z,22.19
2022-08-02T05:08:03.988Z,22.44
2022-08-02T05:09:04.157Z,22.69
2022-08-02T05:10:04.163Z,23.00
2022-08-02T05:11:04.258Z,23.25
2022-08-02T05:12:04.431Z,23.50
2022-08-02T05:13:04.397Z,23.75
2022-08-02T05:14:04.481Z,24.06
2022-08-02T05:15:04.474Z,24.25
2022-08-02T05:16:03.597Z,24.38
2022-08-02T05:17:03.754Z,24.75
2022-08-02T05:18:03.746Z,25.12
2022-08-02T05:19:03.860Z,25.12
2022-08-02T05:20:03.766Z,25.94
2022-08-02T05:21:03.836Z,26.31
2022-08-02T05:22:03.918Z,26.56
2022-08-02T05:23:03.918Z,26.94
2022-08-02T05:24:03.904Z,27.44
2022-08-02T05:25:04.073Z,27.94
2022-08-02T05:26:04.255Z,28.38
2022-08-02T05:27:16.955Z,28.62
2022-08-02T05:28:07.170Z,28.94
2022-08-02T05:29:04.325Z,29.25
2022-08-02T05:30:03.592Z,29.44
2022-08-02T05:31:03.685Z,29.31
2022-08-02T05:32:03.756Z,28.75
2022-08-02T05:33:04.257Z,28.56
2022-08-02T05:34:06.609Z,28.88
2022-08-02T05:35:04.470Z,28.94
2022-08-02T05:36:03.596Z,28.88
2022-08-02T05:37:03.605Z,29.12
2022-08-02T05:38:03.635Z,29.44
2022-08-02T05:39:04.879Z,29.62
2022-08-02T05:40:03.595Z,29.88
2022-08-02T05:41:03.542Z,30.19
2022-08-02T05:42:03.599Z,30.44
2022-08-02T05:43:03.610Z,30.50
2022-08-02T05:44:03.603Z,30.56
2022-08-02T05:45:03.681Z,30.81
2022-08-02T05:46:03.589Z,30.94
2022-08-02T05:47:03.728Z,30.81
2022-08-02T05:48:04.048Z,30.88
2022-08-02T05:49:04.421Z,30.81
2022-08-02T05:50:04.326Z,30.81
2022-08-02T05:51:04.245Z,30.81
2022-08-02T05:52:04.400Z,31.12
2022-08-02T05:53:04.398Z,31.50
2022-08-02T05:54:04.402Z,31.75
2022-08-02T05:55:04.411Z,31.94
2022-08-02T05:56:08.425Z,31.88
2022-08-02T05:57:03.524Z,31.75
2022-08-02T05:58:03.587Z,31.44
2022-08-02T05:59:03.665Z,31.06
2022-08-02T06:00:03.718Z,31.00
2022-08-02T06:01:03.765Z,31.19
2022-08-02T06:02:03.830Z,31.38
2022-08-02T06:03:03.765Z,31.12
2022-08-02T06:04:03.763Z,31.06
2022-08-02T06:05:03.701Z,31.12
2022-08-02T06:06:03.835Z,31.12
2022-08-02T06:07:03.837Z,31.00
2022-08-02T06:08:03.850Z,30.81
2022-08-02T06:09:04.042Z,30.75
2022-08-02T06:10:03.988Z,30.69
2022-08-02T06:11:04.156Z,30.69
2022-08-02T06:12:04.183Z,30.69
2022-08-02T06:13:04.090Z,30.69
2022-08-02T06:14:04.074Z,30.56
2022-08-02T06:15:04.232Z,30.38
2022-08-02T06:16:04.401Z,30.50
2022-08-02T06:17:04.264Z,30.56
2022-08-02T06:18:04.419Z,30.56
2022-08-02T06:19:04.484Z,30.81
2022-08-02T06:20:04.461Z,30.69
2022-08-02T06:22:30.076Z,30.31
2022-08-02T06:22:31.221Z,30.56
2022-08-02T06:23:04.247Z,30.25
2022-08-02T06:24:04.333Z,30.12
2022-08-02T06:25:04.417Z,30.12
2022-08-02T06:26:03.608Z,30.00
2022-08-02T06:27:03.997Z,29.94
2022-08-02T06:28:04.012Z,29.69
2022-08-02T06:29:03.979Z,29.56
2022-08-02T06:30:03.998Z,29.38
2022-08-02T06:31:04.076Z,29.25
2022-08-02T06:32:04.206Z,29.19
2022-08-02T06:33:04.299Z,29.19
2022-08-02T06:34:04.236Z,29.12
2022-08-02T06:35:04.264Z,29.19
2022-08-02T06:36:04.316Z,29.12
2022-08-02T06:37:04.396Z,29.12
2022-08-02T06:38:03.438Z,28.94
2022-08-02T06:39:03.611Z,28.88
2022-08-02T06:40:03.680Z,28.94
2022-08-02T06:41:03.671Z,29.00
2022-08-02T06:42:03.680Z,29.06
2022-08-02T06:43:03.599Z,29.12
2022-08-02T06:44:19.891Z,29.19
2022-08-02T06:45:04.313Z,29.06
2022-08-02T06:46:32.549Z,29.06
2022-08-02T06:47:10.664Z,29.06
2022-08-02T06:48:04.399Z,29.06
2022-08-02T06:49:04.472Z,29.00
2022-08-02T06:50:04.423Z,28.88
2022-08-02T06:51:04.476Z,28.94
2022-08-02T06:52:03.513Z,28.88
2022-08-02T06:53:03.519Z,28.88
2022-08-02T06:54:03.597Z,28.94
2022-08-02T06:55:03.511Z,28.94
2022-08-02T06:56:03.518Z,29.12
2022-08-02T06:57:03.549Z,29.25
2022-08-02T06:58:03.513Z,29.50
2022-08-02T06:59:06.034Z,29.44
2022-08-02T07:00:03.691Z,29.44
2022-08-02T07:01:03.673Z,29.62
2022-08-02T07:02:03.620Z,29.50
2022-08-02T07:03:03.662Z,29.44
2022-08-02T07:04:03.914Z,29.56
2022-08-02T07:05:03.922Z,29.69
2022-08-02T07:06:03.916Z,29.69
2022-08-02T07:07:04.005Z,29.75
2022-08-02T07:08:03.916Z,29.75
2022-08-02T07:09:20.330Z,29.75
2022-08-02T07:10:04.087Z,29.75
2022-08-02T07:11:04.001Z,29.81
2022-08-02T07:12:04.001Z,29.75
2022-08-02T07:13:04.161Z,29.62
2022-08-02T07:14:04.072Z,29.75
2022-08-02T07:15:04.168Z,29.88
2022-08-02T07:16:04.229Z,30.12
2022-08-02T07:17:04.316Z,30.19
2022-08-02T07:18:04.394Z,30.19
2022-08-02T07:19:03.612Z,30.19
2022-08-02T07:20:03.626Z,30.31
2022-08-02T07:21:04.017Z,30.44
2022-08-02T07:22:04.082Z,30.44
2022-08-02T07:23:04.236Z,30.44
2022-08-02T07:24:04.339Z,30.50
2022-08-02T07:25:04.395Z,30.62
2022-08-02T07:26:05.867Z,30.56
2022-08-02T07:27:12.434Z,30.50
2022-08-02T07:28:04.166Z,30.50
2022-08-02T07:29:04.238Z,30.62
2022-08-02T07:30:04.252Z,30.81
2022-08-02T07:31:04.319Z,30.94
2022-08-02T07:32:03.517Z,31.06
2022-08-02T07:33:03.612Z,31.12
2022-08-02T07:34:03.594Z,31.25
2022-08-02T07:35:05.159Z,31.38
2022-08-02T07:36:04.767Z,31.50
2022-08-02T07:37:03.849Z,31.44
2022-08-02T07:38:03.941Z,31.56
2022-08-02T07:39:03.996Z,31.69
2022-08-02T07:40:06.451Z,31.81
2022-08-02T07:41:04.122Z,31.88
2022-08-02T07:42:04.166Z,31.88
2022-08-02T07:43:04.489Z,31.81
2022-08-02T07:44:04.146Z,31.81
2022-08-02T07:45:04.247Z,31.75
2022-08-02T07:46:04.237Z,31.69
2022-08-02T07:47:04.326Z,31.44
2022-08-02T07:48:04.352Z,31.25
2022-08-02T07:49:04.353Z,31.25
2022-08-02T07:50:04.411Z,31.31
2022-08-02T07:51:04.319Z,31.31
2022-08-02T07:52:04.428Z,31.31
2022-08-02T07:53:04.468Z,31.38
2022-08-02T07:54:04.005Z,31.31
2022-08-02T07:55:03.513Z,31.25
2022-08-02T07:56:03.596Z,31.25
2022-08-02T07:57:03.804Z,31.31
2022-08-02T07:58:03.763Z,31.44
2022-08-02T07:59:03.752Z,31.38
2022-08-02T08:00:03.794Z,31.50
2022-08-02T08:01:03.712Z,31.50
2022-08-02T08:02:03.861Z,31.50
2022-08-02T08:03:03.841Z,31.56
2022-08-02T08:04:03.776Z,31.62
2022-08-02T08:05:03.926Z,31.56
2022-08-02T08:06:03.836Z,31.44
2022-08-02T08:07:03.833Z,31.56
2022-08-02T08:08:03.747Z,31.62
2022-08-02T08:09:03.934Z,31.56
2022-08-02T08:10:03.831Z,31.50
2022-08-02T08:11:03.760Z,31.31
2022-08-02T08:12:03.843Z,31.31
2022-08-02T08:13:03.826Z,31.38
2022-08-02T08:14:03.829Z,31.38
2022-08-02T08:15:03.828Z,31.50
2022-08-02T08:16:03.919Z,31.56
2022-08-02T08:17:03.910Z,31.69
2022-08-02T08:18:03.911Z,31.69
2022-08-02T08:19:04.076Z,31.69
2022-08-02T08:20:04.062Z,31.75
2022-08-02T08:21:04.182Z,31.88
2022-08-02T08:22:04.239Z,31.75
2022-08-02T08:23:04.233Z,31.62
2022-08-02T08:24:04.222Z,31.44
2022-08-02T08:25:04.299Z,31.38
2022-08-02T08:26:04.403Z,31.31
2022-08-02T08:27:04.426Z,31.31
2022-08-02T08:28:04.319Z,31.38
2022-08-02T08:29:04.420Z,31.31
2022-08-02T08:30:04.396Z,31.06
2022-08-02T08:31:04.479Z,31.12
2022-08-02T08:32:04.434Z,31.19
2022-08-02T08:33:04.314Z,31.12
2022-08-02T08:34:04.319Z,30.94
2022-08-02T08:35:04.241Z,30.88
2022-08-02T08:36:04.414Z,30.88
2022-08-02T08:37:04.415Z,31.00
2022-08-02T08:38:07.379Z,31.06
2022-08-02T08:39:03.544Z,31.12
2022-08-02T08:40:03.519Z,31.06
2022-08-02T08:41:03.522Z,31.06
2022-08-02T08:42:03.687Z,31.00
2022-08-02T08:43:03.591Z,30.88
2022-08-02T08:44:03.683Z,30.88
2022-08-02T08:45:03.828Z,30.88
2022-08-02T08:46:03.846Z,30.94
2022-08-02T08:47:03.869Z,30.81
2022-08-02T08:48:03.912Z,30.81
2022-08-02T08:49:04.155Z,30.88
2022-08-02T08:50:04.072Z,30.88
2022-08-02T08:51:04.071Z,30.94
2022-08-02T08:52:04.236Z,30.88
2022-08-02T08:53:04.320Z,30.88
2022-08-02T08:54:03.674Z,30.81
2022-08-02T08:55:03.608Z,30.81
2022-08-02T08:56:03.759Z,30.88
2022-08-02T08:57:03.767Z,30.94
2022-08-02T08:58:03.860Z,30.94
2022-08-02T08:59:03.991Z,30.88
2022-08-02T09:00:03.936Z,30.81
2022-08-02T09:01:03.998Z,30.69
2022-08-02T09:02:17.937Z,30.62
2022-08-02T09:03:04.014Z,30.62
2022-08-02T09:04:03.996Z,30.50
2022-08-02T09:05:04.145Z,30.38
2022-08-02T09:06:04.930Z,30.19
2022-08-02T09:07:04.165Z,30.12
2022-08-02T09:08:04.172Z,30.19
2022-08-02T09:09:04.148Z,30.19
2022-08-02T09:10:04.321Z,30.25
2022-08-02T09:11:04.322Z,30.25
2022-08-02T09:12:04.398Z,30.31
2022-08-02T09:13:04.515Z,30.31
2022-08-02T09:14:03.989Z,30.38
2022-08-02T09:15:03.511Z,30.38
2022-08-02T09:16:11.885Z,30.44
2022-08-02T09:17:03.674Z,30.44
2022-08-02T09:18:03.765Z,30.44
2022-08-02T09:19:07.628Z,30.44
2022-08-02T09:20:03.752Z,30.38
2022-08-02T09:21:04.478Z,30.38
2022-08-02T09:22:03.746Z,30.44
2022-08-02T09:23:03.596Z,30.38
2022-08-02T09:24:03.589Z,30.38
2022-08-02T09:25:03.756Z,30.38
2022-08-02T09:26:07.369Z,30.31
2022-08-02T09:27:03.836Z,30.25
2022-08-02T09:28:03.831Z,30.19
2022-08-02T09:29:03.848Z,30.12
2022-08-02T09:30:12.940Z,30.12
2022-08-02T09:31:03.995Z,30.19
2022-08-02T09:32:03.997Z,30.19
2022-08-02T09:33:05.561Z,30.19
2022-08-02T09:34:04.094Z,30.25
2022-08-02T09:35:04.093Z,30.25
2022-08-02T09:36:05.555Z,30.19
2022-08-02T09:37:04.166Z,30.19
2022-08-02T09:38:04.238Z,30.19
2022-08-02T09:39:04.162Z,30.12
2022-08-02T09:40:04.320Z,30.12
2022-08-02T09:41:04.226Z,30.12
2022-08-02T09:42:04.318Z,30.12
2022-08-02T09:43:04.238Z,30.19
2022-08-02T09:44:06.337Z,30.19
2022-08-02T09:45:04.308Z,30.12
2022-08-02T09:46:04.392Z,30.12
2022-08-02T09:47:04.550Z,30.12
2022-08-02T09:48:04.548Z,30.12
2022-08-02T09:49:03.582Z,30.19
2022-08-02T09:50:04.481Z,30.19
2022-08-02T09:51:03.677Z,30.19
2022-08-02T09:52:03.671Z,30.19
2022-08-02T09:53:04.407Z,30.19
2022-08-02T09:54:09.000Z,30.19
2022-08-02T09:55:04.495Z,30.19
2022-08-02T09:56:04.426Z,30.19
2022-08-02T09:57:04.402Z,30.19
2022-08-02T09:58:05.290Z,30.25
2022-08-02T09:59:04.500Z,30.19
2022-08-02T10:00:03.587Z,30.25
2022-08-02T10:01:03.701Z,30.25
2022-08-02T10:02:04.025Z,30.25
2022-08-02T10:03:03.759Z,30.25
2022-08-02T10:04:03.609Z,30.25
2022-08-02T10:05:03.596Z,30.19
2022-08-02T10:06:03.692Z,30.12
2022-08-02T10:07:04.271Z,30.00
2022-08-02T10:08:03.755Z,29.94
2022-08-02T10:09:03.854Z,29.94
2022-08-02T10:10:04.160Z,29.88
2022-08-02T10:11:04.265Z,29.94
2022-08-02T10:12:04.809Z,29.94
2022-08-02T10:13:04.335Z,29.88
2022-08-02T10:14:04.405Z,29.88
2022-08-02T10:15:03.529Z,29.88
2022-08-02T10:16:03.549Z,29.94
2022-08-02T10:17:03.754Z,29.94
2022-08-02T10:18:12.934Z,30.00
2022-08-02T10:19:03.769Z,30.00
2022-08-02T10:20:04.861Z,30.00
2022-08-02T10:21:03.924Z,30.00
2022-08-02T10:22:03.832Z,29.94
2022-08-02T10:23:03.919Z,29.94
2022-08-02T10:24:03.913Z,29.94
2022-08-02T10:25:03.912Z,30.00
2022-08-02T10:26:04.003Z,30.06
2022-08-02T10:27:03.912Z,30.06
2022-08-02T10:28:05.405Z,30.12
2022-08-02T10:29:04.078Z,30.12
2022-08-02T10:30:04.090Z,30.19
2022-08-02T10:31:04.964Z,30.19
2022-08-02T10:32:03.993Z,30.25
2022-08-02T10:33:04.022Z,30.25
2022-08-02T10:34:04.146Z,30.25
2022-08-02T10:35:18.155Z,30.31
2022-08-02T10:36:07.109Z,30.31
2022-08-02T10:37:03.668Z,30.38
2022-08-02T10:38:03.559Z,30.38
2022-08-02T10:39:03.607Z,30.38
2022-08-02T10:40:03.616Z,30.38
2022-08-02T10:41:03.673Z,30.44
2022-08-02T10:42:03.779Z,30.44
2022-08-02T10:43:03.686Z,30.44
2022-08-02T10:44:03.753Z,30.50
2022-08-02T10:45:03.912Z,30.56
2022-08-02T10:46:03.839Z,30.56
2022-08-02T10:47:03.828Z,30.56
2022-08-02T10:48:03.877Z,30.56
2022-08-02T10:49:13.982Z,30.56
2022-08-02T10:50:04.034Z,30.62
2022-08-02T10:51:03.977Z,30.56
2022-08-02T10:52:03.997Z,30.62
2022-08-02T10:53:03.995Z,30.62
2022-08-02T10:54:04.150Z,30.62
2022-08-02T10:55:04.172Z,30.56
2022-08-02T10:56:04.321Z,30.56
2022-08-02T10:57:04.324Z,30.50
2022-08-02T10:58:04.328Z,30.44
2022-08-02T10:59:04.402Z,30.50
2022-08-02T11:00:04.351Z,30.56
2022-08-02T11:01:04.486Z,30.56
2022-08-02T11:02:03.586Z,30.56
2022-08-02T11:03:03.593Z,30.62
2022-08-02T11:04:07.115Z,30.62
2022-08-02T11:05:03.838Z,30.62
2022-08-02T11:06:03.995Z,30.56
2022-08-02T11:07:03.986Z,30.50
2022-08-02T11:08:04.147Z,30.56
2022-08-02T11:09:04.272Z,30.62
2022-08-02T11:10:04.082Z,30.62
2022-08-02T11:11:03.987Z,30.69
2022-08-02T11:12:04.292Z,30.69
2022-08-02T11:13:04.240Z,30.75
2022-08-02T11:14:04.232Z,30.75
2022-08-02T11:15:07.475Z,30.81
2022-08-02T11:16:07.926Z,30.81
2022-08-02T11:17:04.412Z,30.88
2022-08-02T11:18:04.397Z,30.88
2022-08-02T11:19:06.609Z,30.94
2022-08-02T11:20:03.598Z,31.00
2022-08-02T11:21:03.598Z,31.00
2022-08-02T11:22:03.685Z,31.06
2022-08-02T11:23:03.694Z,31.06
2022-08-02T11:24:03.926Z,31.06
2022-08-02T11:25:03.833Z,31.12
2022-08-02T11:26:08.399Z,31.12
2022-08-02T11:27:04.072Z,31.12
2022-08-02T11:28:04.151Z,31.12
2022-08-02T11:29:04.318Z,31.12
2022-08-02T11:30:04.402Z,31.12
2022-08-02T11:31:03.521Z,31.19
2022-08-02T11:32:03.524Z,31.25
2022-08-02T11:33:03.602Z,31.25
2022-08-02T11:34:07.813Z,31.25
2022-08-02T11:35:03.670Z,31.25
2022-08-02T11:36:03.662Z,31.31
2022-08-02T11:37:03.846Z,31.31
2022-08-02T11:38:03.917Z,31.31
2022-08-02T11:39:03.905Z,31.38
2022-08-02T11:40:03.989Z,31.38
2022-08-02T11:41:06.399Z,31.44
2022-08-02T11:42:04.063Z,31.44
2022-08-02T11:43:04.157Z,31.50
2022-08-02T11:44:04.068Z,31.50
2022-08-02T11:45:04.303Z,31.56
2022-08-02T11:46:04.331Z,31.50
2022-08-02T11:47:04.322Z,31.44
2022-08-02T11:48:04.312Z,31.50
2022-08-02T11:49:04.418Z,31.50
2022-08-02T11:50:04.397Z,31.44
2022-08-02T11:51:04.400Z,31.44
2022-08-02T11:52:04.396Z,31.50
2022-08-02T11:53:03.512Z,31.56
2022-08-02T11:54:03.674Z,31.56
2022-08-02T11:55:03.601Z,31.56
2022-08-02T11:56:04.153Z,31.62
2022-08-02T11:57:04.244Z,31.62
2022-08-02T11:58:05.522Z,31.69
2022-08-02T11:59:04.477Z,31.62
2022-08-02T12:00:04.512Z,31.62
2022-08-02T12:01:04.568Z,31.56
2022-08-02T12:02:03.633Z,31.62
2022-08-02T12:03:04.348Z,31.62
2022-08-02T12:04:04.395Z,31.62
2022-08-02T12:05:04.392Z,31.69
2022-08-02T12:06:06.693Z,31.69
2022-08-02T12:07:04.506Z,31.75
2022-08-02T12:08:04.392Z,31.75
2022-08-02T12:09:03.595Z,31.69
2022-08-02T12:10:03.520Z,31.56
2022-08-02T12:11:03.691Z,31.44
2022-08-02T12:12:03.835Z,31.38
2022-08-02T12:13:03.918Z,31.44
2022-08-02T12:14:03.840Z,31.44
2022-08-02T12:15:03.998Z,31.50
2022-08-02T12:16:08.461Z,31.50
2022-08-02T12:17:04.229Z,31.56
2022-08-02T12:18:04.247Z,31.62
2022-08-02T12:19:04.399Z,31.62
2022-08-02T12:20:04.599Z,31.62
2022-08-02T12:21:03.514Z,31.56
2022-08-02T12:22:03.501Z,31.56
2022-08-02T12:23:03.523Z,31.56
2022-08-02T12:24:03.515Z,31.62
2022-08-02T12:25:03.523Z,31.62
2022-08-02T12:26:03.516Z,31.69
2022-08-02T12:27:03.523Z,31.69
2022-08-02T12:28:03.586Z,31.75
2022-08-02T12:29:03.626Z,31.75
2022-08-02T12:30:03.682Z,31.81
2022-08-02T12:31:03.598Z,31.81
2022-08-02T12:32:03.609Z,31.81
2022-08-02T12:33:03.670Z,31.81
2022-08-02T12:34:03.677Z,31.81
2022-08-02T12:35:03.666Z,31.81
2022-08-02T12:36:03.838Z,31.75
2022-08-02T12:37:03.842Z,31.81
2022-08-02T12:38:03.835Z,31.81
2022-08-02T12:39:03.921Z,31.81
2022-08-02T12:40:03.981Z,31.81
2022-08-02T12:41:04.143Z,31.81
2022-08-02T12:42:04.068Z,31.81
2022-08-02T12:43:04.990Z,31.75
2022-08-02T12:44:04.331Z,31.75
2022-08-02T12:45:04.226Z,31.75
2022-08-02T12:46:04.475Z,31.75
2022-08-02T12:47:04.404Z,31.81
2022-08-02T12:48:04.393Z,31.88
2022-08-02T12:49:17.167Z,31.88
2022-08-02T12:50:04.586Z,31.88
2022-08-02T12:51:04.470Z,31.94
2022-08-02T12:52:06.714Z,31.94